createdAt,value
2019-05-18T00:02:32.866Z,16.82
2019-05-18T00:05:07.709Z,17.80
2019-05-18T00:07:41.438Z,15.78
2019-05-18T00:10:15.204Z,17.48
2019-05-18T00:12:49.017Z,17.25
2019-05-18T00:15:22.846Z,17.67
2019-05-18T00:17:56.715Z,18.90
2019-05-18T00:20:30.464Z,15.28
2019-05-18T00:23:04.410Z,18.60
2019-05-18T00:25:38.302Z,18.52
2019-05-18T00:28:12.091Z,17.85
2019-05-18T00:30:45.757Z,18.15
2019-05-18T00:33:19.388Z,17.00
2019-05-18T00:35:53.259Z,20.15
2019-05-18T00:38:27.088Z,18.92
2019-05-18T00:41:00.881Z,19.95
2019-05-18T00:43:34.998Z,22.55
2019-05-18T00:46:08.869Z,19.27
2019-05-18T00:48:42.694Z,20.95
2019-05-18T00:51:16.452Z,21.23
2019-05-18T00:53:50.455Z,21.17
2019-05-18T00:56:24.254Z,21.45
2019-05-18T00:58:58.194Z,21.20
2019-05-18T01:01:32.089Z,21.12
2019-05-18T01:04:05.819Z,21.00
2019-05-18T01:06:39.508Z,22.05
2019-05-18T01:09:13.355Z,19.02
2019-05-18T01:11:47.200Z,21.95
2019-05-18T01:14:21.113Z,23.50
2019-05-18T01:16:54.860Z,22.58
2019-05-18T01:19:28.564Z,20.15
2019-05-18T01:22:02.354Z,21.80
2019-05-18T01:24:36.089Z,21.60
2019-05-18T01:27:09.932Z,22.58
2019-05-18T01:29:43.686Z,20.80
2019-05-18T01:32:17.392Z,24.02
2019-05-18T01:34:51.103Z,22.35
2019-05-18T01:37:24.939Z,20.85
2019-05-18T01:39:58.760Z,24.67
2019-05-18T01:42:32.543Z,20.90
2019-05-18T01:45:16.525Z,23.20
2019-05-18T01:47:42.948Z,24.02
2019-05-18T01:50:17.324Z,23.42
2019-05-18T01:52:51.107Z,21.57
2019-05-18T01:55:24.858Z,18.62
2019-05-18T01:57:58.860Z,18.67
2019-05-18T02:00:32.639Z,21.93
2019-05-18T02:03:06.289Z,20.52
2019-05-18T02:05:40.159Z,21.30
2019-05-18T02:08:13.922Z,19.17
2019-05-18T02:10:47.802Z,22.62
2019-05-18T02:13:21.553Z,22.95
2019-05-18T02:15:55.341Z,21.37
2019-05-18T02:18:29.493Z,21.15
2019-05-18T02:21:03.461Z,19.48
2019-05-18T02:23:37.112Z,19.20
2019-05-18T02:26:11.099Z,20.50
2019-05-18T02:28:44.878Z,18.02
2019-05-18T02:31:18.728Z,23.10
2019-05-18T02:33:52.592Z,24.10
2019-05-18T02:36:26.419Z,23.05
2019-05-18T02:39:00.156Z,25.30
2019-05-18T02:41:33.975Z,26.68
2019-05-18T02:44:07.599Z,25.45
2019-05-18T02:46:41.320Z,24.32
2019-05-18T02:49:15.033Z,29.40
2019-05-18T02:51:48.758Z,27.55
2019-05-18T02:54:22.623Z,27.27
2019-05-18T02:56:56.382Z,27.77
2019-05-18T02:59:30.055Z,31.70
2019-05-18T03:02:03.702Z,30.65
2019-05-18T03:04:37.506Z,26.07
2019-05-18T03:07:11.234Z,30.30
2019-05-18T03:09:45.216Z,30.82
2019-05-18T03:12:19.083Z,30.50
2019-05-18T03:14:52.792Z,31.95
2019-05-18T03:17:26.604Z,30.77
2019-05-18T03:20:00.674Z,30.02
2019-05-18T03:22:34.643Z,31.20
2019-05-18T03:25:09.720Z,34.45
2019-05-18T03:27:43.424Z,33.20
2019-05-18T03:30:17.407Z,40.33
2019-05-18T03:32:51.117Z,33.98
2019-05-18T03:35:25.170Z,35.15
2019-05-18T03:37:58.944Z,34.67
2019-05-18T03:40:32.776Z,35.70
2019-05-18T03:43:06.634Z,34.08
2019-05-18T03:45:40.336Z,34.38
2019-05-18T03:48:14.027Z,34.13
2019-05-18T03:50:47.925Z,34.55
2019-05-18T03:53:21.591Z,38.42
2019-05-18T03:55:55.359Z,37.17
2019-05-18T03:58:29.167Z,41.70
2019-05-18T04:01:03.375Z,37.38
2019-05-18T04:03:37.081Z,39.50
2019-05-18T04:06:10.765Z,40.15
2019-05-18T04:08:44.549Z,43.15
2019-05-18T04:11:18.394Z,33.78
2019-05-18T04:13:52.202Z,35.15
2019-05-18T04:16:26.339Z,32.23
2019-05-18T04:19:00.062Z,36.07
2019-05-18T04:21:33.821Z,40.83
2019-05-18T04:24:07.568Z,37.40
2019-05-18T04:26:41.300Z,40.10
2019-05-18T04:29:14.942Z,36.05
2019-05-18T04:31:48.687Z,37.38
2019-05-18T04:34:22.315Z,39.25
2019-05-18T04:36:56.042Z,35.15
2019-05-18T04:39:29.764Z,40.05
2019-05-18T04:42:03.472Z,42.25
2019-05-18T04:44:37.027Z,42.90
2019-05-18T04:47:10.768Z,44.95
2019-05-18T04:50:01.852Z,37.78
2019-05-18T04:52:20.371Z,38.45
2019-05-18T04:54:54.046Z,39.85
2019-05-18T04:57:27.768Z,36.00
2019-05-18T05:00:01.449Z,33.70
2019-05-18T05:02:35.185Z,36.75
2019-05-18T05:05:09.402Z,31.75
2019-05-18T05:07:43.168Z,33.35
2019-05-18T05:10:17.056Z,31.95
2019-05-18T05:12:50.828Z,35.48
2019-05-18T05:15:24.580Z,26.50
2019-05-18T05:17:58.262Z,31.60
2019-05-18T05:20:31.914Z,36.83
2019-05-18T05:23:05.521Z,31.23
2019-05-18T05:25:39.281Z,32.70
2019-05-18T05:28:13.023Z,31.02
2019-05-18T05:30:47.051Z,32.15
2019-05-18T05:33:20.733Z,35.58
2019-05-18T05:35:54.462Z,32.10
2019-05-18T05:38:28.189Z,32.42
2019-05-18T05:41:01.897Z,31.40
2019-05-18T05:43:35.675Z,32.08
2019-05-18T05:46:09.376Z,34.80
2019-05-18T05:48:43.095Z,34.03
2019-05-18T05:51:16.839Z,31.82
2019-05-18T05:53:50.567Z,30.32
2019-05-18T05:56:24.356Z,30.75
2019-05-18T05:58:58.073Z,27.50
2019-05-18T06:01:31.802Z,31.30
2019-05-18T06:04:05.535Z,28.30
2019-05-18T06:06:39.207Z,32.13
2019-05-18T06:09:12.963Z,28.07
2019-05-18T06:11:46.774Z,27.58
2019-05-18T06:14:20.363Z,25.45
2019-05-18T06:16:54.120Z,26.95
2019-05-18T06:19:27.739Z,25.08
2019-05-18T06:22:01.457Z,22.93
2019-05-18T06:24:35.347Z,24.95
2019-05-18T06:27:09.038Z,24.37
2019-05-18T06:29:42.826Z,21.68
2019-05-18T06:32:16.539Z,23.27
2019-05-18T06:34:50.221Z,22.50
2019-05-18T06:37:23.936Z,22.32
2019-05-18T06:39:57.614Z,24.63
2019-05-18T06:42:31.356Z,27.37
2019-05-18T06:45:05.431Z,27.10
2019-05-18T06:47:39.156Z,23.22
2019-05-18T06:50:13.464Z,23.55
2019-05-18T06:52:47.480Z,22.67
2019-05-18T06:55:21.116Z,22.80
2019-05-18T06:57:57.029Z,25.65
2019-05-18T07:00:30.678Z,24.65
2019-05-18T07:03:04.560Z,26.75
2019-05-18T07:05:38.193Z,21.52
2019-05-18T07:08:11.797Z,20.52
2019-05-18T07:10:49.141Z,23.15
2019-05-18T07:13:22.882Z,24.02
2019-05-18T07:15:57.283Z,21.90
2019-05-18T07:18:31.123Z,23.73
2019-05-18T07:21:04.681Z,22.40
2019-05-18T07:23:38.362Z,23.07
2019-05-18T07:26:12.091Z,24.05
2019-05-18T07:28:45.733Z,22.22
2019-05-18T07:31:19.343Z,23.60
2019-05-18T07:33:52.965Z,21.95
2019-05-18T07:36:26.732Z,23.07
2019-05-18T07:39:00.576Z,19.95
2019-05-18T07:41:45.876Z,21.02
2019-05-18T07:44:09.617Z,22.05
2019-05-18T07:46:43.256Z,20.02
2019-05-18T07:49:16.882Z,18.70
2019-05-18T07:51:50.609Z,20.00
2019-05-18T07:54:24.317Z,22.15
2019-05-18T07:56:57.981Z,21.00
2019-05-18T07:59:32.014Z,25.72
2019-05-18T08:02:06.128Z,19.12
2019-05-18T08:04:39.947Z,19.62
2019-05-18T08:07:13.654Z,19.37
2019-05-18T08:09:47.348Z,20.48
2019-05-18T08:12:21.091Z,19.77
2019-05-18T08:14:54.765Z,19.32
2019-05-18T08:17:28.471Z,21.00
2019-05-18T08:20:02.181Z,21.80
2019-05-18T08:22:35.843Z,20.52
2019-05-18T08:25:10.089Z,22.50
2019-05-18T08:27:43.727Z,18.48
2019-05-18T08:30:17.714Z,18.85
2019-05-18T08:32:51.536Z,19.50
2019-05-18T08:35:27.360Z,19.65
2019-05-18T08:38:00.704Z,19.82
2019-05-18T08:40:34.302Z,20.40
2019-05-18T08:43:07.953Z,18.73
2019-05-18T08:45:41.590Z,20.92
2019-05-18T08:48:15.240Z,19.75
2019-05-18T08:50:48.933Z,20.75
2019-05-18T08:53:22.734Z,18.00
2019-05-18T08:55:56.434Z,18.85
2019-05-18T08:58:30.148Z,17.82
2019-05-18T09:01:05.150Z,20.27
2019-05-18T09:03:38.929Z,18.70
2019-05-18T09:06:12.644Z,21.77
2019-05-18T09:08:48.163Z,18.45
2019-05-18T09:11:21.683Z,20.65
2019-05-18T09:13:55.413Z,19.07
2019-05-18T09:16:29.098Z,18.95
2019-05-18T09:19:02.875Z,14.68
2019-05-18T09:21:36.536Z,17.67
2019-05-18T09:24:10.359Z,19.15
2019-05-18T09:26:44.057Z,18.37
2019-05-18T09:29:17.824Z,20.95
2019-05-18T09:31:51.439Z,21.10
2019-05-18T09:34:25.136Z,17.60
2019-05-18T09:36:58.786Z,16.90
2019-05-18T09:39:32.466Z,19.07
2019-05-18T09:42:06.127Z,17.15
2019-05-18T09:44:39.955Z,17.90
2019-05-18T09:47:13.671Z,16.75
2019-05-18T09:49:47.501Z,15.75
2019-05-18T09:52:21.181Z,17.05
2019-05-18T09:54:54.938Z,17.15
2019-05-18T09:57:28.607Z,17.87
2019-05-18T10:00:02.607Z,15.63
2019-05-18T10:02:36.493Z,18.37
2019-05-18T10:05:10.541Z,15.75
2019-05-18T10:07:44.165Z,16.17
2019-05-18T10:10:18.043Z,15.32
2019-05-18T10:12:51.706Z,15.23
2019-05-18T10:15:25.534Z,16.90
2019-05-18T10:17:59.116Z,14.87
2019-05-18T10:20:32.876Z,14.83
2019-05-18T10:23:12.837Z,18.20
2019-05-18T10:25:41.982Z,18.55
2019-05-18T10:28:15.709Z,16.23
2019-05-18T10:30:49.519Z,13.65
2019-05-18T10:33:23.391Z,12.85
2019-05-18T10:35:57.049Z,15.03
2019-05-18T10:38:30.719Z,14.35
2019-05-18T10:41:04.434Z,15.03
2019-05-18T10:43:38.032Z,14.10
2019-05-18T10:46:12.022Z,13.68
2019-05-18T10:48:45.891Z,14.63
2019-05-18T10:51:19.559Z,13.48
2019-05-18T10:53:53.342Z,14.33
2019-05-18T10:56:27.190Z,12.10
2019-05-18T10:59:01.017Z,15.53
2019-05-18T11:01:34.765Z,12.47
2019-05-18T11:04:08.674Z,12.43
2019-05-18T11:06:42.338Z,13.75
2019-05-18T11:09:16.012Z,13.22
2019-05-18T11:11:49.718Z,10.90
2019-05-18T11:14:23.557Z,10.15
2019-05-18T11:16:57.270Z,9.50
2019-05-18T11:19:31.254Z,13.72
2019-05-18T11:22:05.138Z,15.08
2019-05-18T11:24:39.148Z,12.88
2019-05-18T11:27:12.989Z,15.72
2019-05-18T11:29:46.690Z,13.72
2019-05-18T11:32:20.420Z,13.28
2019-05-18T11:34:54.391Z,9.95
2019-05-18T11:37:28.018Z,15.13
2019-05-18T11:40:01.830Z,12.95
2019-05-18T11:42:35.746Z,10.58
2019-05-18T11:45:10.709Z,11.45
2019-05-18T11:47:44.531Z,11.43
2019-05-18T11:50:18.740Z,13.05
2019-05-18T11:52:52.507Z,11.12
2019-05-18T11:55:26.494Z,13.13
2019-05-18T11:58:00.401Z,11.35
2019-05-18T12:00:34.481Z,11.85
2019-05-18T12:03:08.522Z,12.65
2019-05-18T12:05:42.416Z,11.55
2019-05-18T12:08:16.016Z,10.25
2019-05-18T12:10:49.674Z,13.93
2019-05-18T12:13:23.356Z,11.68
2019-05-18T12:15:57.050Z,12.03
2019-05-18T12:18:30.795Z,11.22
2019-05-18T12:21:04.628Z,11.10
2019-05-18T12:23:38.310Z,9.75
2019-05-18T12:26:12.094Z,11.10
2019-05-18T12:28:48.909Z,10.28
2019-05-18T12:31:22.609Z,10.70
2019-05-18T12:33:56.277Z,10.63
2019-05-18T12:36:30.021Z,10.03
2019-05-18T12:39:05.261Z,8.75
2019-05-18T12:41:38.994Z,10.25
2019-05-18T12:44:12.555Z,10.45
2019-05-18T12:46:46.212Z,10.90
2019-05-18T12:49:20.699Z,12.80
2019-05-18T12:51:54.336Z,11.43
2019-05-18T12:54:34.023Z,10.32
2019-05-18T12:57:03.243Z,8.55
2019-05-18T12:59:36.799Z,9.43
2019-05-18T13:02:10.560Z,10.08
2019-05-18T13:04:44.123Z,9.18
2019-05-18T13:07:17.817Z,9.18
2019-05-18T13:09:51.727Z,9.38
2019-05-18T13:12:25.478Z,12.28
2019-05-18T13:14:59.271Z,9.83
2019-05-18T13:17:32.948Z,8.35
2019-05-18T13:20:07.739Z,10.00
2019-05-18T13:22:41.590Z,6.75
2019-05-18T13:25:15.741Z,8.83
2019-05-18T13:27:50.530Z,7.08
2019-05-18T13:30:27.019Z,7.03
2019-05-18T13:33:00.663Z,8.10
2019-05-18T13:35:34.470Z,8.80
2019-05-18T13:38:08.166Z,8.28
2019-05-18T13:40:41.938Z,10.00
2019-05-18T13:43:15.607Z,9.08
2019-05-18T13:45:49.208Z,10.53
2019-05-18T13:48:22.878Z,9.05
2019-05-18T13:50:56.565Z,9.63
2019-05-18T13:53:30.149Z,8.50
2019-05-18T13:56:03.990Z,7.20
2019-05-18T13:58:37.880Z,8.00
2019-05-18T14:01:11.596Z,6.25
2019-05-18T14:03:45.317Z,10.90
2019-05-18T14:06:18.888Z,7.70
2019-05-18T14:08:52.625Z,7.67
2019-05-18T14:11:26.272Z,6.37
2019-05-18T14:13:59.995Z,11.00
2019-05-18T14:16:34.964Z,8.00
2019-05-18T14:19:08.788Z,7.70
2019-05-18T14:21:42.458Z,6.62
2019-05-18T14:24:16.053Z,6.55
2019-05-18T14:26:49.913Z,6.15
2019-05-18T14:29:23.591Z,7.55
2019-05-18T14:31:57.346Z,6.22
2019-05-18T14:34:31.047Z,7.60
2019-05-18T14:37:05.717Z,5.45
2019-05-18T14:39:39.406Z,5.03
2019-05-18T14:42:13.127Z,5.47
2019-05-18T14:44:47.009Z,8.95
2019-05-18T14:47:20.720Z,5.65
2019-05-18T14:49:54.460Z,7.40
2019-05-18T14:52:28.107Z,5.15
2019-05-18T14:55:01.775Z,5.37
2019-05-18T14:57:35.621Z,5.78
2019-05-18T15:00:09.977Z,5.70
2019-05-18T15:02:43.701Z,5.42
2019-05-18T15:05:17.658Z,6.00
2019-05-18T15:07:53.082Z,4.75
2019-05-18T15:10:26.713Z,5.15
2019-05-18T15:13:00.508Z,4.40
2019-05-18T15:15:34.239Z,5.72
2019-05-18T15:18:07.903Z,6.10
2019-05-18T15:20:41.677Z,6.92
2019-05-18T15:23:15.317Z,6.25
2019-05-18T15:25:51.084Z,5.25
2019-05-18T15:28:24.326Z,4.22
2019-05-18T15:30:57.944Z,5.12
2019-05-18T15:33:31.640Z,4.55
2019-05-18T15:36:05.256Z,5.03
2019-05-18T15:38:38.974Z,4.97
2019-05-18T15:41:12.634Z,4.90
2019-05-18T15:43:46.672Z,5.20
2019-05-18T15:46:20.388Z,4.95
2019-05-18T15:48:54.256Z,5.83
2019-05-18T15:51:27.885Z,5.60
2019-05-18T15:54:01.762Z,5.95
2019-05-18T15:56:35.405Z,5.30
2019-05-18T15:59:09.093Z,6.72
2019-05-18T16:01:42.758Z,5.08
2019-05-18T16:04:16.389Z,4.62
2019-05-18T16:06:50.187Z,5.58
2019-05-18T16:09:23.867Z,4.92
2019-05-18T16:11:57.711Z,4.50
2019-05-18T16:14:31.452Z,5.03
2019-05-18T16:17:05.134Z,4.47
2019-05-18T16:19:38.782Z,5.10
2019-05-18T16:22:12.624Z,5.12
2019-05-18T16:24:46.293Z,4.95
2019-05-18T16:27:19.946Z,4.53
2019-05-18T16:29:53.651Z,3.85
2019-05-18T16:32:27.372Z,5.40
2019-05-18T16:35:00.966Z,4.05
2019-05-18T16:37:34.625Z,4.47
2019-05-18T16:40:08.597Z,6.95
2019-05-18T16:42:42.259Z,5.28
2019-05-18T16:45:16.491Z,6.90
2019-05-18T16:47:50.166Z,10.10
2019-05-18T16:50:23.970Z,4.80
2019-05-18T16:52:57.763Z,5.47
2019-05-18T16:55:31.763Z,5.30
2019-05-18T16:58:07.329Z,4.80
2019-05-18T17:00:41.086Z,4.62
2019-05-18T17:03:14.695Z,5.25
2019-05-18T17:05:48.380Z,5.15
2019-05-18T17:08:22.187Z,5.45
2019-05-18T17:10:55.855Z,7.22
2019-05-18T17:13:29.973Z,6.05
2019-05-18T17:16:03.679Z,4.67
2019-05-18T17:18:37.339Z,6.17
2019-05-18T17:21:11.009Z,6.20
2019-05-18T17:23:44.702Z,7.72
2019-05-18T17:26:18.488Z,6.37
2019-05-18T17:28:52.154Z,9.35
2019-05-18T17:31:25.791Z,8.48
2019-05-18T17:33:59.423Z,7.15
2019-05-18T17:36:33.100Z,6.50
2019-05-18T17:39:07.670Z,8.05
2019-05-18T17:41:41.367Z,8.33
2019-05-18T17:44:15.025Z,8.98
2019-05-18T17:46:48.925Z,7.75
2019-05-18T17:49:26.838Z,6.10
2019-05-18T17:51:58.020Z,6.28
2019-05-18T17:54:31.687Z,8.48
2019-05-18T17:57:08.877Z,10.60
2019-05-18T17:59:40.900Z,7.20
2019-05-18T18:02:14.512Z,9.05
2019-05-18T18:04:48.204Z,8.23
2019-05-18T18:07:21.842Z,7.17
2019-05-18T18:09:55.491Z,8.63
2019-05-18T18:12:29.151Z,9.43
2019-05-18T18:15:03.392Z,6.75
2019-05-18T18:17:37.075Z,7.78
2019-05-18T18:20:11.533Z,8.43
2019-05-18T18:22:45.157Z,8.70
2019-05-18T18:25:18.875Z,8.30
2019-05-18T18:27:52.594Z,7.87
2019-05-18T18:30:28.177Z,7.75
2019-05-18T18:33:01.791Z,9.50
2019-05-18T18:35:35.494Z,7.85
2019-05-18T18:38:09.123Z,8.95
2019-05-18T18:40:43.512Z,8.78
2019-05-18T18:43:17.098Z,14.25
2019-05-18T18:45:50.859Z,11.30
2019-05-18T18:48:26.392Z,12.55
2019-05-18T18:51:00.036Z,11.73
2019-05-18T18:53:33.768Z,11.03
2019-05-18T18:56:07.575Z,10.28
2019-05-18T18:58:41.435Z,11.05
2019-05-18T19:01:15.451Z,11.38
2019-05-18T19:03:49.149Z,13.10
2019-05-18T19:06:22.845Z,11.50
2019-05-18T19:08:56.540Z,13.18
2019-05-18T19:11:30.239Z,13.98
2019-05-18T19:14:04.098Z,12.45
2019-05-18T19:16:37.856Z,15.58
2019-05-18T19:19:11.539Z,12.58
2019-05-18T19:21:45.232Z,14.03
2019-05-18T19:24:18.878Z,12.98
2019-05-18T19:26:52.640Z,14.10
2019-05-18T19:29:26.248Z,16.00
2019-05-18T19:32:00.037Z,14.45
2019-05-18T19:34:33.808Z,16.12
2019-05-18T19:37:07.487Z,13.60
2019-05-18T19:39:41.290Z,15.93
2019-05-18T19:42:14.989Z,16.87
2019-05-18T19:44:48.767Z,17.52
2019-05-18T19:47:22.446Z,15.15
2019-05-18T19:49:56.596Z,16.10
2019-05-18T19:52:30.364Z,15.05
2019-05-18T19:55:04.445Z,15.65
2019-05-18T19:57:38.004Z,15.68
2019-05-18T20:00:12.234Z,14.95
2019-05-18T20:02:46.055Z,19.02
2019-05-18T20:05:20.110Z,16.42
2019-05-18T20:07:53.786Z,15.78
2019-05-18T20:10:27.374Z,20.12
2019-05-18T20:13:01.057Z,17.70
2019-05-18T20:15:34.727Z,18.15
2019-05-18T20:18:08.616Z,19.17
2019-05-18T20:20:42.305Z,18.32
2019-05-18T20:23:15.988Z,17.55
2019-05-18T20:25:49.693Z,17.20
2019-05-18T20:28:24.341Z,18.90
2019-05-18T20:30:58.435Z,18.42
2019-05-18T20:33:32.154Z,17.67
2019-05-18T20:36:05.940Z,20.77
2019-05-18T20:38:39.648Z,18.73
2019-05-18T20:41:13.342Z,18.25
2019-05-18T20:43:47.054Z,18.85
2019-05-18T20:46:20.832Z,18.90
2019-05-18T20:48:55.022Z,18.37
2019-05-18T20:51:28.630Z,20.97
2019-05-18T20:54:04.354Z,20.17
2019-05-18T20:56:38.010Z,20.35
2019-05-18T20:59:11.917Z,24.20
2019-05-18T21:01:45.676Z,23.22
2019-05-18T21:04:19.478Z,22.20
2019-05-18T21:06:53.186Z,22.25
2019-05-18T21:09:26.875Z,23.25
2019-05-18T21:12:00.734Z,25.23
2019-05-18T21:14:34.535Z,23.87
2019-05-18T21:17:08.207Z,21.10
2019-05-18T21:19:41.843Z,24.87
2019-05-18T21:22:15.509Z,21.35
2019-05-18T21:24:49.283Z,23.98
2019-05-18T21:27:23.009Z,24.00
2019-05-18T21:29:56.641Z,24.15
2019-05-18T21:32:30.346Z,24.35
2019-05-18T21:35:04.501Z,24.35
2019-05-18T21:37:38.315Z,24.85
2019-05-18T21:40:12.680Z,27.37
2019-05-18T21:42:46.423Z,26.73
2019-05-18T21:45:20.061Z,25.10
2019-05-18T21:47:53.901Z,27.05
2019-05-18T21:50:27.587Z,24.63
2019-05-18T21:53:01.260Z,25.75
2019-05-18T21:55:35.257Z,26.48
2019-05-18T21:58:12.047Z,25.68
2019-05-18T22:00:46.146Z,30.55
2019-05-18T22:03:19.891Z,25.92
2019-05-18T22:05:53.646Z,29.05
2019-05-18T22:08:27.286Z,28.75
2019-05-18T22:11:01.003Z,25.43
2019-05-18T22:13:34.613Z,25.30
2019-05-18T22:16:08.475Z,26.80
2019-05-18T22:18:42.194Z,25.45
2019-05-18T22:21:16.315Z,26.68
2019-05-18T22:23:50.117Z,26.68
2019-05-18T22:26:23.851Z,29.15
2019-05-18T22:28:57.661Z,26.00
2019-05-18T22:31:31.363Z,28.38
2019-05-18T22:34:05.126Z,32.10
2019-05-18T22:36:39.285Z,31.15
2019-05-18T22:39:13.032Z,28.45
2019-05-18T22:41:46.686Z,28.27
2019-05-18T22:44:20.425Z,30.65
2019-05-18T22:46:54.106Z,30.77
2019-05-18T22:49:27.998Z,29.10
2019-05-18T22:52:01.985Z,29.98
2019-05-18T22:54:35.813Z,29.72
2019-05-18T22:57:09.492Z,28.32
2019-05-18T22:59:43.198Z,29.95
2019-05-18T23:02:16.919Z,26.73
2019-05-18T23:04:50.585Z,28.35
2019-05-18T23:07:24.617Z,24.50
2019-05-18T23:09:58.207Z,27.87
2019-05-18T23:12:31.970Z,27.37
2019-05-18T23:15:05.997Z,26.30
2019-05-18T23:17:39.761Z,27.93
2019-05-18T23:20:13.650Z,30.27
2019-05-18T23:22:47.551Z,27.73
2019-05-18T23:25:21.470Z,31.40
2019-05-18T23:27:55.384Z,27.13
2019-05-18T23:30:29.022Z,27.95
2019-05-18T23:33:02.782Z,32.03
2019-05-18T23:35:36.537Z,27.22
2019-05-18T23:38:10.346Z,27.48
2019-05-18T23:40:44.070Z,29.42
2019-05-18T23:43:17.913Z,28.38
2019-05-18T23:45:51.734Z,24.98
2019-05-18T23:48:25.414Z,26.65
2019-05-18T23:50:59.342Z,25.57
2019-05-18T23:53:33.070Z,30.55
2019-05-18T23:56:07.025Z,30.08
2019-05-18T23:58:40.716Z,28.40
